Time;durP1;ratioP1;P1;durP2;ratioP2;P2;SDS_P1;SDS_P2;PMS_P1;PMS_P2;Temp;Humidity;BMP_temperature;BMP_pressure;BME280_temperature;BME280_humidity;BME280_pressure;Samples;Min_cycle;Max_cycle;Signal;HPM_P1;HPM_P2
2022/09/14 00:01:46;;;;;;;4.90;3.25;;;;;;;;;;4882119;29;20474;-78
2022/09/14 00:04:16;;;;;;;6.53;3.72;;;;;;;;;;4881945;29;20033;-78
2022/09/14 00:06:43;;;;;;;6.03;2.78;;;;;;;;;;4882115;29;20068;-79
2022/09/14 00:09:14;;;;;;;6.28;3.55;;;;;;;;;;4898853;29;20020;-79
2022/09/14 00:11:40;;;;;;;5.60;3.05;;;;;;;;;;4882040;29;20529;-79
2022/09/14 00:14:06;;;;;;;8.38;3.55;;;;;;;;;;4898864;29;20056;-79
2022/09/14 00:16:33;;;;;;;6.05;3.22;;;;;;;;;;4898635;29;20031;-79
2022/09/14 00:19:04;;;;;;;7.82;3.45;;;;;;;;;;4898589;29;20050;-78
2022/09/14 00:21:31;;;;;;;5.63;3.50;;;;;;;;;;4881739;29;20035;-78
2022/09/14 00:23:57;;;;;;;6.13;3.47;;;;;;;;;;4898461;29;20041;-79
2022/09/14 00:26:24;;;;;;;5.00;3.03;;;;;;;;;;4881315;29;20025;-78
2022/09/14 00:28:51;;;;;;;7.93;3.63;;;;;;;;;;4881561;29;20144;-78
2022/09/14 00:31:18;;;;;;;9.23;3.83;;;;;;;;;;4881435;29;20474;-78
2022/09/14 00:33:46;;;;;;;7.13;3.55;;;;;;;;;;4881546;29;20039;-78
2022/09/14 00:36:20;;;;;;;7.40;3.45;;;;;;;;;;4881514;29;20028;-79
2022/09/14 00:38:46;;;;;;;6.15;3.35;;;;;;;;;;4881477;29;20035;-78
2022/09/14 00:41:16;;;;;;;6.50;3.25;;;;;;;;;;4881459;29;20053;-78
2022/09/14 00:43:57;;;;;;;7.95;3.47;;;;;;;;;;4881312;29;20052;-78
2022/09/14 00:46:25;;;;;;;6.38;3.67;;;;;;;;;;4881411;29;20531;-79
2022/09/14 00:48:51;;;;;;;6.80;3.70;;;;;;;;;;4881364;29;20032;-78
2022/09/14 00:51:18;;;;;;;6.50;3.33;;;;;;;;;;4881416;29;20077;-79
2022/09/14 00:53:44;;;;;;;6.90;3.90;;;;;;;;;;4898190;29;20040;-78
2022/09/14 00:56:11;;;;;;;6.97;3.53;;;;;;;;;;4881308;29;20028;-78
2022/09/14 00:58:37;;;;;;;7.45;3.65;;;;;;;;;;4898203;29;20033;-79
2022/09/14 01:01:03;;;;;;;5.10;3.30;;;;;;;;;;4881356;29;20438;-78
2022/09/14 01:03:30;;;;;;;6.70;3.67;;;;;;;;;;4898035;29;20060;-78
2022/09/14 01:06:14;;;;;;;6.53;4.22;;;;;;;;;;4898052;29;20111;-78
2022/09/14 01:08:57;;;;;;;7.38;3.58;;;;;;;;;;4881348;29;20036;-78
2022/09/14 01:11:30;;;;;;;5.50;3.45;;;;;;;;;;4898327;29;20059;-79
2022/09/14 01:14:07;;;;;;;9.07;3.22;;;;;;;;;;4881435;29;20037;-78
2022/09/14 01:16:37;;;;;;;8.13;3.90;;;;;;;;;;4881162;29;20033;-78
2022/09/14 01:19:05;;;;;;;7.45;4.05;;;;;;;;;;4881459;29;20029;-78
2022/09/14 01:21:34;;;;;;;7.22;4.00;;;;;;;;;;4881149;29;20033;-79
2022/09/14 01:24:07;;;;;;;5.72;3.10;;;;;;;;;;4881037;29;20099;-79
2022/09/14 01:26:39;;;;;;;6.43;4.40;;;;;;;;;;4881310;29;20028;-78
2022/09/14 01:29:32;;;;;;;6.85;3.30;;;;;;;;;;4881023;29;20476;-78
2022/09/14 01:32:15;;;;;;;6.78;3.70;;;;;;;;;;4873538;29;20036;-78
2022/09/14 01:34:44;;;;;;;7.05;4.20;;;;;;;;;;4880946;29;20052;-78
2022/09/14 01:37:20;;;;;;;6.25;3.55;;;;;;;;;;4881058;29;20029;-79
2022/09/14 01:39:59;;;;;;;5.40;3.55;;;;;;;;;;4883255;29;20043;-79
2022/09/14 01:42:27;;;;;;;6.85;4.38;;;;;;;;;;4884602;29;20067;-79
2022/09/14 01:44:55;;;;;;;6.95;3.30;;;;;;;;;;4884337;29;20040;-79
2022/09/14 01:47:25;;;;;;;5.47;3.40;;;;;;;;;;4901650;29;20474;-80
2022/09/14 01:50:10;;;;;;;6.60;3.47;;;;;;;;;;4884506;29;20040;-79
2022/09/14 01:52:42;;;;;;;5.85;3.92;;;;;;;;;;4901245;29;20474;-79
2022/09/14 01:55:17;;;;;;;9.00;4.00;;;;;;;;;;4884374;29;20036;-79
2022/09/14 01:57:47;;;;;;;8.45;4.25;;;;;;;;;;4884333;29;20382;-80
2022/09/14 02:00:15;;;;;;;7.68;4.15;;;;;;;;;;4884281;29;20127;-80
2022/09/14 02:03:00;;;;;;;7.07;4.13;;;;;;;;;;4900936;29;20025;-79
2022/09/14 02:05:32;;;;;;;8.00;4.70;;;;;;;;;;4884071;29;20047;-80
2022/09/14 02:07:59;;;;;;;7.70;4.00;;;;;;;;;;4881606;29;20032;-78
2022/09/14 02:10:25;;;;;;;7.85;5.18;;;;;;;;;;4884011;29;20036;-79
2022/09/14 02:12:52;;;;;;;8.50;5.00;;;;;;;;;;4884125;29;20040;-79
2022/09/14 02:15:18;;;;;;;9.05;5.07;;;;;;;;;;4883992;29;20119;-79
2022/09/14 02:17:44;;;;;;;7.43;4.57;;;;;;;;;;4883904;29;20028;-78
2022/09/14 02:20:16;;;;;;;10.00;5.03;;;;;;;;;;4883910;29;20482;-77
2022/09/14 02:22:42;;;;;;;8.43;4.85;;;;;;;;;;4900749;29;20367;-79
2022/09/14 02:25:09;;;;;;;6.78;4.70;;;;;;;;;;4900542;29;20051;-78
2022/09/14 02:27:35;;;;;;;6.72;4.22;;;;;;;;;;4883698;29;20025;-79
2022/09/14 02:30:01;;;;;;;6.63;4.70;;;;;;;;;;4868326;29;20060;-78
2022/09/14 02:32:46;;;;;;;8.55;4.13;;;;;;;;;;4883501;29;20564;-79
2022/09/14 02:35:35;;;;;;;7.68;4.70;;;;;;;;;;4883635;29;20033;-79
2022/09/14 02:38:20;;;;;;;10.27;4.57;;;;;;;;;;4871769;29;20064;-79
2022/09/14 02:41:16;;;;;;;10.07;4.70;;;;;;;;;;4883448;29;20397;-79
2022/09/14 02:43:51;;;;;;;7.15;4.68;;;;;;;;;;4880505;29;20048;-79
2022/09/14 02:46:17;;;;;;;6.47;4.20;;;;;;;;;;4883458;29;20446;-79
2022/09/14 02:49:03;;;;;;;5.93;4.15;;;;;;;;;;4883357;29;20035;-79
2022/09/14 02:51:35;;;;;;;9.20;5.05;;;;;;;;;;4883007;29;20033;-78
2022/09/14 02:54:17;;;;;;;6.95;4.65;;;;;;;;;;4883145;29;20037;-78
2022/09/14 02:56:43;;;;;;;8.80;4.60;;;;;;;;;;4883347;29;20438;-78
2022/09/14 02:59:09;;;;;;;11.98;5.28;;;;;;;;;;4883208;29;20020;-79
2022/09/14 03:01:36;;;;;;;7.18;5.03;;;;;;;;;;4883185;29;20079;-78
2022/09/14 03:04:03;;;;;;;9.30;4.60;;;;;;;;;;4899963;29;20111;-79
2022/09/14 03:06:29;;;;;;;8.63;4.95;;;;;;;;;;4883143;29;20036;-78
2022/09/14 03:08:55;;;;;;;7.90;4.63;;;;;;;;;;4883118;29;20522;-79
2022/09/14 03:11:21;;;;;;;10.00;4.90;;;;;;;;;;4900285;29;20032;-79
2022/09/14 03:13:49;;;;;;;7.68;5.00;;;;;;;;;;4882956;29;20036;-79
2022/09/14 03:16:16;;;;;;;8.50;5.53;;;;;;;;;;4882832;29;20025;-79
2022/09/14 03:18:43;;;;;;;8.70;5.50;;;;;;;;;;4899665;29;20513;-79
2022/09/14 03:21:11;;;;;;;7.18;5.28;;;;;;;;;;4899877;29;20080;-79
2022/09/14 03:23:42;;;;;;;9.85;4.88;;;;;;;;;;4899583;29;20057;-79
2022/09/14 03:26:13;;;;;;;10.57;5.57;;;;;;;;;;4880292;29;20037;-79
2022/09/14 03:28:39;;;;;;;8.73;5.80;;;;;;;;;;4899572;29;20493;-78
2022/09/14 03:31:08;;;;;;;10.95;5.55;;;;;;;;;;4882773;29;20056;-79
2022/09/14 03:33:35;;;;;;;10.02;5.15;;;;;;;;;;4899317;29;20048;-79
2022/09/14 03:36:19;;;;;;;8.02;4.75;;;;;;;;;;4882631;29;20087;-79
2022/09/14 03:38:47;;;;;;;10.45;6.13;;;;;;;;;;4882536;29;20020;-79
2022/09/14 03:41:13;;;;;;;9.95;4.95;;;;;;;;;;4882467;29;20032;-79
2022/09/14 03:43:41;;;;;;;9.00;4.75;;;;;;;;;;4899128;29;20047;-78
2022/09/14 03:46:08;;;;;;;9.00;5.63;;;;;;;;;;4882405;29;20037;-78
2022/09/14 03:48:35;;;;;;;7.28;4.88;;;;;;;;;;4882378;29;20133;-81
2022/09/14 03:51:01;;;;;;;8.00;5.35;;;;;;;;;;4882237;29;20040;-79
2022/09/14 03:53:28;;;;;;;9.63;5.15;;;;;;;;;;4882247;29;20033;-79
2022/09/14 03:55:56;;;;;;;8.02;4.85;;;;;;;;;;4882356;29;20029;-80
2022/09/14 03:58:22;;;;;;;11.30;5.78;;;;;;;;;;4899231;29;20065;-79
2022/09/14 04:00:49;;;;;;;8.68;5.35;;;;;;;;;;4866701;29;20037;-80
2022/09/14 04:03:15;;;;;;;9.43;5.75;;;;;;;;;;4881454;29;20036;-79
2022/09/14 04:05:41;;;;;;;10.73;5.43;;;;;;;;;;4881960;29;20045;-79
2022/09/14 04:08:09;;;;;;;12.32;4.43;;;;;;;;;;4899000;29;20033;-78
2022/09/14 04:10:35;;;;;;;9.20;4.20;;;;;;;;;;4898749;29;20029;-78
2022/09/14 04:13:02;;;;;;;8.32;5.45;;;;;;;;;;4881816;29;20461;-79
2022/09/14 04:15:28;;;;;;;12.48;4.82;;;;;;;;;;4881772;29;20028;-78
2022/09/14 04:17:55;;;;;;;6.78;4.18;;;;;;;;;;4881838;29;20035;-79
2022/09/14 04:20:21;;;;;;;8.35;5.57;;;;;;;;;;4881744;29;20398;-78
2022/09/14 04:22:47;;;;;;;18.65;5.60;;;;;;;;;;4898982;29;20041;-77
2022/09/14 04:25:13;;;;;;;8.85;6.10;;;;;;;;;;4881602;29;20502;-79
2022/09/14 04:27:39;;;;;;;14.13;6.03;;;;;;;;;;4898252;29;20032;-78
2022/09/14 04:30:06;;;;;;;11.57;6.30;;;;;;;;;;4881362;29;20490;-79
2022/09/14 04:32:32;;;;;;;10.23;5.88;;;;;;;;;;4897806;29;20052;-80
2022/09/14 04:34:59;;;;;;;12.07;6.20;;;;;;;;;;4898170;29;20028;-79
2022/09/14 04:37:26;;;;;;;8.98;5.15;;;;;;;;;;4898420;29;20065;-79
2022/09/14 04:39:52;;;;;;;9.88;6.15;;;;;;;;;;4898288;29;20489;-79
2022/09/14 04:42:18;;;;;;;9.45;6.53;;;;;;;;;;4899927;29;20028;-80
2022/09/14 04:44:44;;;;;;;10.07;5.60;;;;;;;;;;4881481;29;20040;-77
2022/09/14 04:47:10;;;;;;;10.02;6.28;;;;;;;;;;4900563;29;20488;-77
2022/09/14 04:49:37;;;;;;;8.10;5.10;;;;;;;;;;4881875;29;20532;-76
2022/09/14 04:52:04;;;;;;;8.95;6.05;;;;;;;;;;4898228;29;20088;-78
2022/09/14 04:54:30;;;;;;;10.00;5.22;;;;;;;;;;4881810;29;20088;-79
2022/09/14 04:56:57;;;;;;;10.82;5.85;;;;;;;;;;4881986;29;20382;-78
2022/09/14 04:59:23;;;;;;;10.43;6.38;;;;;;;;;;4899187;29;20060;-77
2022/09/14 05:01:52;;;;;;;11.23;5.82;;;;;;;;;;4880781;29;20035;-78
2022/09/14 05:04:18;;;;;;;8.35;5.65;;;;;;;;;;4876578;29;20080;-77
2022/09/14 05:06:46;;;;;;;10.30;5.93;;;;;;;;;;4896788;29;20028;-79
2022/09/14 05:09:13;;;;;;;8.50;4.93;;;;;;;;;;4891390;29;20036;-79
2022/09/14 05:11:40;;;;;;;9.50;5.95;;;;;;;;;;4888095;29;20521;-80
2022/09/14 05:14:07;;;;;;;10.35;5.80;;;;;;;;;;4893625;29;20051;-77
2022/09/14 05:16:35;;;;;;;12.15;5.72;;;;;;;;;;4893197;29;20041;-80
2022/09/14 05:19:03;;;;;;;10.05;5.35;;;;;;;;;;4907507;29;20024;-80
2022/09/14 05:21:31;;;;;;;8.35;4.93;;;;;;;;;;4910274;29;20024;-79
2022/09/14 05:24:01;;;;;;;10.40;5.32;;;;;;;;;;4888427;29;20118;-79
2022/09/14 05:26:29;;;;;;;10.35;5.20;;;;;;;;;;4900502;29;20891;-79
2022/09/14 05:28:56;;;;;;;8.07;4.82;;;;;;;;;;4881953;29;20033;-78
2022/09/14 05:31:27;;;;;;;9.63;4.85;;;;;;;;;;4921479;29;20032;-80
2022/09/14 05:33:55;;;;;;;7.45;5.13;;;;;;;;;;4903791;29;20485;-80
2022/09/14 05:36:21;;;;;;;12.77;5.50;;;;;;;;;;4901373;29;20430;-79
2022/09/14 05:38:49;;;;;;;11.88;5.38;;;;;;;;;;4901276;29;20029;-79
2022/09/14 05:41:16;;;;;;;9.23;5.05;;;;;;;;;;4899990;29;20036;-77
2022/09/14 05:43:42;;;;;;;11.50;5.75;;;;;;;;;;4894655;29;20072;-79
2022/09/14 05:46:27;;;;;;;12.32;5.85;;;;;;;;;;4884827;29;20084;-76
2022/09/14 05:48:53;;;;;;;10.02;6.03;;;;;;;;;;4890920;29;20540;-78
2022/09/14 05:51:20;;;;;;;7.85;5.35;;;;;;;;;;4899340;29;20033;-80
2022/09/14 05:53:50;;;;;;;9.23;5.70;;;;;;;;;;4899813;29;20072;-79
2022/09/14 05:56:17;;;;;;;9.00;5.57;;;;;;;;;;4899698;29;20447;-79
2022/09/14 05:58:43;;;;;;;8.07;5.07;;;;;;;;;;4899737;29;20032;-80
2022/09/14 06:01:15;;;;;;;7.78;5.10;;;;;;;;;;4900884;29;20060;-80
2022/09/14 06:03:42;;;;;;;9.13;5.82;;;;;;;;;;4884124;29;20490;-79
2022/09/14 06:06:09;;;;;;;11.13;5.40;;;;;;;;;;4883849;29;20119;-80
2022/09/14 06:08:35;;;;;;;8.55;5.10;;;;;;;;;;4883847;29;20029;-75
2022/09/14 06:11:06;;;;;;;9.13;5.10;;;;;;;;;;4883829;29;20071;-78
2022/09/14 06:13:32;;;;;;;8.63;4.28;;;;;;;;;;4883927;29;20039;-78
2022/09/14 06:16:02;;;;;;;8.57;4.82;;;;;;;;;;4883732;29;20062;-76
2022/09/14 06:18:31;;;;;;;7.68;4.95;;;;;;;;;;4868166;29;20542;-79
2022/09/14 06:20:57;;;;;;;8.18;5.13;;;;;;;;;;4883134;29;20025;-77
2022/09/14 06:23:23;;;;;;;9.13;5.05;;;;;;;;;;4883406;29;20040;-78
2022/09/14 06:25:52;;;;;;;9.02;5.63;;;;;;;;;;4899661;29;20041;-78
2022/09/14 06:28:18;;;;;;;12.45;5.75;;;;;;;;;;4883558;29;20124;-78
2022/09/14 06:30:44;;;;;;;7.68;4.95;;;;;;;;;;4883387;29;20039;-78
2022/09/14 06:33:10;;;;;;;9.40;5.10;;;;;;;;;;4883311;29;20053;-78
2022/09/14 06:35:36;;;;;;;8.68;4.93;;;;;;;;;;4883360;29;20379;-78
2022/09/14 06:38:02;;;;;;;7.75;5.00;;;;;;;;;;4883533;29;20055;-77
2022/09/14 06:40:28;;;;;;;7.28;5.32;;;;;;;;;;4883382;29;20494;-77
2022/09/14 06:42:56;;;;;;;8.85;5.20;;;;;;;;;;4883227;29;20029;-77
2022/09/14 06:45:22;;;;;;;9.20;5.60;;;;;;;;;;4883218;29;20092;-77
2022/09/14 06:47:48;;;;;;;12.25;5.53;;;;;;;;;;4883228;29;20028;-78
2022/09/14 06:50:14;;;;;;;10.60;5.50;;;;;;;;;;4899990;29;20029;-78
2022/09/14 06:52:40;;;;;;;9.25;4.68;;;;;;;;;;4883061;29;20040;-78
2022/09/14 06:55:07;;;;;;;7.43;4.68;;;;;;;;;;4883042;29;20024;-78
2022/09/14 06:57:33;;;;;;;8.05;5.25;;;;;;;;;;4899866;29;20035;-77
2022/09/14 06:59:59;;;;;;;7.00;4.18;;;;;;;;;;4899782;29;20052;-78
2022/09/14 07:02:25;;;;;;;7.18;4.65;;;;;;;;;;4882891;29;20032;-77
2022/09/14 07:04:51;;;;;;;7.68;4.47;;;;;;;;;;4882839;29;20040;-78
2022/09/14 07:07:18;;;;;;;6.53;4.30;;;;;;;;;;4882741;29;20031;-78
2022/09/14 07:09:44;;;;;;;8.20;4.18;;;;;;;;;;4882839;29;20486;-78
2022/09/14 07:12:10;;;;;;;7.68;4.15;;;;;;;;;;4882528;29;20029;-78
2022/09/14 07:14:37;;;;;;;7.45;4.20;;;;;;;;;;4899563;29;20036;-77
2022/09/14 07:17:03;;;;;;;8.40;4.35;;;;;;;;;;4882590;29;20024;-77
2022/09/14 07:19:29;;;;;;;15.60;3.92;;;;;;;;;;4882639;29;20037;-79
2022/09/14 07:21:55;;;;;;;7.90;4.22;;;;;;;;;;4899261;29;20088;-78
2022/09/14 07:24:22;;;;;;;9.07;3.88;;;;;;;;;;4876069;29;20041;-77
2022/09/14 07:26:48;;;;;;;10.80;3.88;;;;;;;;;;4882170;29;20032;-87
2022/09/14 07:29:18;;;;;;;6.68;3.80;;;;;;;;;;4884230;29;20081;-77
2022/09/14 07:31:45;;;;;;;6.85;3.90;;;;;;;;;;4882668;29;20037;-77
2022/09/14 07:34:12;;;;;;;7.47;3.58;;;;;;;;;;4898813;29;20044;-79
2022/09/14 07:36:38;;;;;;;9.68;4.22;;;;;;;;;;4897911;29;20095;-80
2022/09/14 07:39:06;;;;;;;7.40;3.85;;;;;;;;;;4889574;29;20040;-79
2022/09/14 07:41:33;;;;;;;7.43;3.50;;;;;;;;;;4897761;29;20027;-76
2022/09/14 07:43:59;;;;;;;6.18;4.00;;;;;;;;;;4897858;29;20503;-76
2022/09/14 07:46:26;;;;;;;7.68;4.13;;;;;;;;;;4891053;29;20176;-77
2022/09/14 07:48:56;;;;;;;8.73;3.97;;;;;;;;;;4882167;29;20033;-77
2022/09/14 07:51:23;;;;;;;7.65;3.80;;;;;;;;;;4882119;29;20025;-78
2022/09/14 07:53:49;;;;;;;7.95;3.97;;;;;;;;;;4882159;29;20485;-77
2022/09/14 07:56:16;;;;;;;11.30;4.18;;;;;;;;;;4882017;29;20029;-76
2022/09/14 07:58:42;;;;;;;8.10;3.95;;;;;;;;;;4898830;29;20021;-77
2022/09/14 08:01:12;;;;;;;8.05;4.20;;;;;;;;;;4881672;29;20031;-76
2022/09/14 08:03:39;;;;;;;6.78;4.45;;;;;;;;;;4898699;29;20493;-76
2022/09/14 08:06:07;;;;;;;9.52;3.75;;;;;;;;;;4881786;29;20040;-77
2022/09/14 08:08:35;;;;;;;6.13;3.85;;;;;;;;;;4881774;29;20456;-77
2022/09/14 08:11:11;;;;;;;10.63;4.22;;;;;;;;;;4881695;29;20036;-77
2022/09/14 08:13:41;;;;;;;10.23;4.70;;;;;;;;;;4881741;29;20120;-77
2022/09/14 08:16:07;;;;;;;6.35;4.28;;;;;;;;;;4881551;29;20025;-77
2022/09/14 08:18:34;;;;;;;8.95;4.25;;;;;;;;;;4881557;29;20120;-78
2022/09/14 08:21:08;;;;;;;5.40;3.88;;;;;;;;;;4898349;29;20389;-76
2022/09/14 08:23:34;;;;;;;7.20;4.10;;;;;;;;;;4898383;29;20080;-77
2022/09/14 08:26:08;;;;;;;7.03;4.38;;;;;;;;;;4881393;29;20037;-76
2022/09/14 08:28:35;;;;;;;6.15;4.10;;;;;;;;;;4898238;29;20048;-75
2022/09/14 08:31:17;;;;;;;6.72;3.28;;;;;;;;;;4898169;29;20085;-78
2022/09/14 08:33:45;;;;;;;6.13;3.83;;;;;;;;;;4881219;29;20048;-78
2022/09/14 08:36:12;;;;;;;4.90;3.28;;;;;;;;;;4898046;29;20434;-77
2022/09/14 08:38:39;;;;;;;5.97;4.10;;;;;;;;;;4881361;29;20028;-79
2022/09/14 08:41:10;;;;;;;7.35;4.13;;;;;;;;;;4881074;29;20355;-78
2022/09/14 08:43:37;;;;;;;7.05;3.75;;;;;;;;;;4881173;29;20494;-78
2022/09/14 08:46:05;;;;;;;5.68;3.10;;;;;;;;;;4881064;29;20043;-83
2022/09/14 08:48:34;;;;;;;6.40;3.75;;;;;;;;;;4880682;29;20032;-78
2022/09/14 08:51:00;;;;;;;6.07;3.50;;;;;;;;;;4881175;29;20120;-86
2022/09/14 08:53:27;;;;;;;6.18;3.50;;;;;;;;;;4891079;29;20084;-81
2022/09/14 08:56:05;;;;;;;6.68;3.20;;;;;;;;;;4883679;29;20033;-82
2022/09/14 08:58:31;;;;;;;7.28;3.53;;;;;;;;;;4880908;29;20112;-78
2022/09/14 09:01:09;;;;;;;5.57;3.22;;;;;;;;;;4880954;29;20451;-76
2022/09/14 09:03:56;;;;;;;6.10;3.63;;;;;;;;;;4899616;29;20020;-83
2022/09/14 09:06:22;;;;;;;7.45;3.75;;;;;;;;;;4899236;29;20032;-76
2022/09/14 09:08:48;;;;;;;6.45;3.63;;;;;;;;;;4899708;29;20508;-77
2022/09/14 09:11:22;;;;;;;5.90;3.40;;;;;;;;;;4899393;29;20032;-77
2022/09/14 09:13:49;;;;;;;7.15;3.25;;;;;;;;;;4916591;29;20039;-78
2022/09/14 09:16:18;;;;;;;5.85;2.80;;;;;;;;;;4916552;29;20036;-77
2022/09/14 09:18:46;;;;;;;6.05;3.42;;;;;;;;;;4907428;29;20021;-75
2022/09/14 09:21:21;;;;;;;6.38;3.38;;;;;;;;;;4897572;29;20025;-76
2022/09/14 09:23:47;;;;;;;6.07;3.60;;;;;;;;;;4880828;29;20055;-76
2022/09/14 09:26:27;;;;;;;11.30;3.55;;;;;;;;;;4880698;29;20043;-76
2022/09/14 09:28:55;;;;;;;5.28;3.35;;;;;;;;;;4880895;29;20200;-78
2022/09/14 09:31:26;;;;;;;6.97;3.85;;;;;;;;;;4880610;29;20052;-77
2022/09/14 09:33:52;;;;;;;4.93;3.30;;;;;;;;;;4880655;29;20061;-74
2022/09/14 09:36:18;;;;;;;7.20;3.22;;;;;;;;;;4880766;29;20039;-75
2022/09/14 09:38:45;;;;;;;6.38;3.17;;;;;;;;;;4880697;29;20084;-77
2022/09/14 09:41:11;;;;;;;5.60;2.80;;;;;;;;;;4880598;29;20104;-75
2022/09/14 09:43:56;;;;;;;7.55;3.50;;;;;;;;;;4897245;29;20029;-76
2022/09/14 09:46:22;;;;;;;9.38;3.53;;;;;;;;;;4880601;29;20088;-76
2022/09/14 09:48:49;;;;;;;8.25;3.53;;;;;;;;;;4897422;29;20060;-77
2022/09/14 09:51:33;;;;;;;6.38;3.22;;;;;;;;;;4880465;29;20029;-77
2022/09/14 09:54:12;;;;;;;9.65;3.08;;;;;;;;;;4880586;29;20443;-76
2022/09/14 09:56:40;;;;;;;5.18;3.38;;;;;;;;;;4880515;29;20036;-77
2022/09/14 09:59:26;;;;;;;4.93;3.30;;;;;;;;;;4894757;29;20394;-77
2022/09/14 10:01:54;;;;;;;7.03;3.70;;;;;;;;;;4919501;29;20039;-77
2022/09/14 10:04:28;;;;;;;5.55;3.45;;;;;;;;;;4919576;29;20040;-76
2022/09/14 10:06:56;;;;;;;5.38;3.30;;;;;;;;;;4902586;29;20084;-73
2022/09/14 10:09:27;;;;;;;7.88;3.50;;;;;;;;;;4919436;29;20016;-74
2022/09/14 10:12:00;;;;;;;5.78;3.47;;;;;;;;;;4902623;29;20366;-76
2022/09/14 10:14:30;;;;;;;6.15;3.58;;;;;;;;;;4902676;29;20029;-74
2022/09/14 10:17:06;;;;;;;6.05;3.60;;;;;;;;;;4901174;29;20572;-75
2022/09/14 10:19:32;;;;;;;4.78;3.10;;;;;;;;;;4909402;29;20508;-74
2022/09/14 10:22:15;;;;;;;11.88;3.75;;;;;;;;;;4912187;29;20036;-73
2022/09/14 10:24:51;;;;;;;6.15;3.75;;;;;;;;;;4893100;29;20076;-73
2022/09/14 10:27:52;;;;;;;8.70;4.22;;;;;;;;;;4883346;29;20095;-74
2022/09/14 10:30:19;;;;;;;7.15;3.95;;;;;;;;;;4796243;29;20042;-73
2022/09/14 10:33:02;;;;;;;9.80;4.43;;;;;;;;;;4900741;29;20544;-75
2022/09/14 10:35:49;;;;;;;6.05;4.05;;;;;;;;;;4902151;29;20024;-74
2022/09/14 10:38:32;;;;;;;7.63;4.20;;;;;;;;;;4892431;29;20032;-74
2022/09/14 10:41:21;;;;;;;7.32;4.07;;;;;;;;;;4908905;29;20044;-74
2022/09/14 10:43:59;;;;;;;9.23;4.57;;;;;;;;;;4880661;29;20052;-75
2022/09/14 10:46:29;;;;;;;6.22;4.30;;;;;;;;;;4883173;29;20029;-74
2022/09/14 10:49:05;;;;;;;6.75;4.63;;;;;;;;;;4883018;29;20039;-74
2022/09/14 10:51:36;;;;;;;7.32;4.40;;;;;;;;;;4900002;29;20393;-77
2022/09/14 10:54:07;;;;;;;10.60;4.18;;;;;;;;;;4899954;29;20021;-74
2022/09/14 10:56:37;;;;;;;7.65;4.30;;;;;;;;;;4883015;29;20496;-74
2022/09/14 10:59:06;;;;;;;9.05;4.13;;;;;;;;;;4882795;29;20033;-74
2022/09/14 11:01:46;;;;;;;7.78;4.50;;;;;;;;;;4878034;29;20033;-76
2022/09/14 11:04:22;;;;;;;8.65;4.30;;;;;;;;;;4909428;29;20041;-76
2022/09/14 11:06:48;;;;;;;8.02;4.25;;;;;;;;;;4901542;29;20028;-74
2022/09/14 11:09:18;;;;;;;9.02;4.32;;;;;;;;;;4901474;29;20028;-77
2022/09/14 11:11:56;;;;;;;8.02;4.45;;;;;;;;;;4901134;29;20477;-76
2022/09/14 11:14:51;;;;;;;13.70;4.22;;;;;;;;;;4901570;29;20083;-75
2022/09/14 11:17:24;;;;;;;6.57;3.70;;;;;;;;;;4905729;29;20046;-76
2022/09/14 11:19:56;;;;;;;6.67;3.80;;;;;;;;;;4883929;29;20020;-78
2022/09/14 11:22:22;;;;;;;5.85;4.20;;;;;;;;;;4882560;29;20021;-77
2022/09/14 11:24:56;;;;;;;5.40;3.58;;;;;;;;;;4882525;29;20045;-76
2022/09/14 11:27:31;;;;;;;7.38;4.00;;;;;;;;;;4881244;29;20033;-76
2022/09/14 11:30:00;;;;;;;5.20;3.47;;;;;;;;;;4899389;29;20025;-77
2022/09/14 11:32:31;;;;;;;6.78;4.30;;;;;;;;;;4881953;29;20040;-78
2022/09/14 11:35:17;;;;;;;6.70;4.43;;;;;;;;;;4882139;29;20501;-78
2022/09/14 11:37:47;;;;;;;10.27;4.30;;;;;;;;;;4881935;29;20036;-76
2022/09/14 11:40:34;;;;;;;10.18;4.55;;;;;;;;;;4881775;29;20028;-77
2022/09/14 11:43:04;;;;;;;7.00;4.22;;;;;;;;;;4881982;29;20067;-77
2022/09/14 11:45:34;;;;;;;6.60;3.92;;;;;;;;;;4898920;29;20040;-77
2022/09/14 11:48:18;;;;;;;7.97;4.47;;;;;;;;;;4899296;29;20040;-76
2022/09/14 11:50:46;;;;;;;7.38;4.13;;;;;;;;;;4881700;29;20032;-76
2022/09/14 11:53:13;;;;;;;8.02;4.30;;;;;;;;;;4881755;29;20063;-77
2022/09/14 11:55:49;;;;;;;12.15;4.82;;;;;;;;;;4898601;29;20025;-76
2022/09/14 11:58:30;;;;;;;6.55;4.50;;;;;;;;;;4881962;29;20119;-76
2022/09/14 12:01:00;;;;;;;8.25;5.40;;;;;;;;;;4908128;29;20031;-77
2022/09/14 12:03:52;;;;;;;7.78;4.97;;;;;;;;;;4900680;29;20581;-75
2022/09/14 12:06:28;;;;;;;8.20;5.60;;;;;;;;;;4895662;29;20425;-76
2022/09/14 12:08:54;;;;;;;8.88;5.35;;;;;;;;;;4892121;29;20482;-75
2022/09/14 12:11:25;;;;;;;10.45;5.57;;;;;;;;;;4889960;29;20035;-78
2022/09/14 12:14:10;;;;;;;8.93;5.57;;;;;;;;;;4904082;29;20112;-78
2022/09/14 12:16:58;;;;;;;11.35;5.57;;;;;;;;;;4910243;29;20386;-80
2022/09/14 12:19:26;;;;;;;8.07;5.43;;;;;;;;;;4835357;29;20104;-78
2022/09/14 12:21:52;;;;;;;10.43;5.95;;;;;;;;;;4898331;29;20025;-78
2022/09/14 12:24:22;;;;;;;8.30;5.25;;;;;;;;;;4881395;29;20398;-77
2022/09/14 12:26:48;;;;;;;8.13;5.45;;;;;;;;;;4915306;29;20063;-79
2022/09/14 12:29:47;;;;;;;13.45;5.90;;;;;;;;;;4883686;29;20028;-78
2022/09/14 12:32:26;;;;;;;7.80;4.65;;;;;;;;;;4848009;29;20159;-77
2022/09/14 12:35:11;;;;;;;8.20;5.13;;;;;;;;;;4896081;29;20088;-76
2022/09/14 12:37:37;;;;;;;8.05;4.97;;;;;;;;;;4895979;29;20021;-77
2022/09/14 12:40:35;;;;;;;7.18;4.10;;;;;;;;;;4897194;29;20024;-78
2022/09/14 12:43:20;;;;;;;9.60;4.25;;;;;;;;;;4885937;29;20051;-78
2022/09/14 12:45:51;;;;;;;7.43;3.72;;;;;;;;;;4896730;29;20401;-77
2022/09/14 12:48:35;;;;;;;5.10;3.50;;;;;;;;;;4896758;29;20032;-80
2022/09/14 12:51:03;;;;;;;5.85;3.65;;;;;;;;;;4876884;29;20058;-78
2022/09/14 12:53:31;;;;;;;6.25;3.80;;;;;;;;;;4893545;29;20040;-78
2022/09/14 12:56:13;;;;;;;5.35;3.55;;;;;;;;;;4904518;29;20084;-74
2022/09/14 12:58:49;;;;;;;9.50;3.90;;;;;;;;;;4899832;29;20087;-77
2022/09/14 13:01:28;;;;;;;9.30;3.53;;;;;;;;;;4916609;29;20146;-77
2022/09/14 13:03:55;;;;;;;6.43;3.60;;;;;;;;;;4896400;29;20037;-75
2022/09/14 13:06:22;;;;;;;10.35;3.78;;;;;;;;;;4896463;29;20032;-76
2022/09/14 13:08:50;;;;;;;6.40;3.88;;;;;;;;;;4896824;29;20028;-74
2022/09/14 13:11:22;;;;;;;5.28;3.70;;;;;;;;;;4867166;29;20035;-75
2022/09/14 13:13:48;;;;;;;5.85;3.97;;;;;;;;;;4878250;29;20394;-75
2022/09/14 13:16:17;;;;;;;6.70;4.07;;;;;;;;;;4878737;29;20093;-74
2022/09/14 13:18:43;;;;;;;7.45;3.60;;;;;;;;;;4862516;29;20078;-74
2022/09/14 13:21:20;;;;;;;7.22;3.40;;;;;;;;;;4862467;29;20045;-77
2022/09/14 13:23:47;;;;;;;5.53;3.53;;;;;;;;;;4862392;29;20491;-75
2022/09/14 13:29:18;;;;;;;6.30;3.92;;;;;;;;;;4934543;23;20059;-80
